Главная страница
METAR-TAF:

METAR-TAF

Аэропорты :

Куньмин Чаншуй

Куньмин, Китай

широта: 25-01N, долгота: 102-41E, высота над уровнем моря: 1892 м

Текущие метеонаблюдения

Эта сводка был подготовлена 33 минут назад, в 11:00 UTC
Ветер 10 Узел от южный-юго-западный
Температура 19°C
Влажность 73%
Давление 1019 hPa
Видимость 10 км и более
Отдельные облака на высоте 2300 фута
Рассеянная облачность на высоте 4300 фута

METAR: ZPPP 241100Z 21005MPS 9999 SCT023 BKN043 19/14 Q1019 NOSIG

Время: 19:33 (11:33 UTC)

Прогноз

Эта сводка был подготовлена 10 часа и 17 минут назад, в 01:16 UTC
Прогноз действительный с 24-го 06 UTC до 25-го 06 UTC
Ветер 8 Узел от юго-западный
Видимость 10 км и более
Отдельные облака на высоте 2000 фута

TAF: ZPPP 240116Z 2406/2506 22004MPS 9999 SCT020 TX23/2408Z TN14/2423Z

Метеонаблюдения и прогнозы для более 4000 аэропортов (сводки METAR и TAF).

Имеющиеся станции представлены на карте желтыми и красными точками.

Чтобы увидеть название станции, наведите на нее мышь.

Затем щелкните, чтобы увидеть метеонаблюдения и метеопрогнозы.

Управление картой: чтобы увеличить масштаб, щелкните зеленые кнопки с черным крестиком; чтобы уменьшить масштаб, щелкните зеленую кнопку с тире; для просмотра соседних карт щелкайте зеленые стрелки.


METAR-TAF: